createdAt,value
2019-04-11T15:44:58.047Z,35
2019-04-11T15:45:03.042Z,35
2019-04-11T15:45:08.013Z,35
2019-04-11T15:45:13.426Z,35
2019-04-11T15:45:14.130Z,35
2019-04-11T15:45:19.154Z,35
2019-04-11T15:45:24.167Z,35
2019-04-11T15:45:29.175Z,34
2019-04-11T15:45:34.203Z,35
2019-04-11T15:45:36.653Z,35
2019-04-11T15:45:41.713Z,35
2019-04-11T15:45:47.254Z,36
2019-04-11T15:45:51.679Z,36
2019-04-11T15:45:56.700Z,36
2019-04-11T15:46:01.725Z,36
2019-04-11T15:46:06.767Z,36
2019-04-11T15:46:11.790Z,36
2019-04-11T15:46:17.086Z,36
2019-04-11T15:46:21.789Z,36
2019-04-11T15:46:26.798Z,36
2019-04-11T15:46:31.822Z,35
2019-04-11T15:46:36.838Z,35
2019-04-11T15:46:38.571Z,35
2019-04-11T15:46:47.846Z,35
2019-04-11T15:46:48.618Z,35
2019-04-11T15:46:53.653Z,35
2019-04-11T15:47:00.674Z,35
2019-04-11T15:47:03.627Z,35
2019-04-11T15:47:08.649Z,35
2019-04-11T15:47:13.736Z,35
2019-04-11T15:47:19.575Z,35
2019-04-11T15:47:23.709Z,35
2019-04-11T15:47:28.766Z,35
2019-04-11T15:47:33.819Z,34
2019-04-11T15:47:38.779Z,35
2019-04-11T15:47:43.781Z,35
2019-04-11T15:47:49.331Z,35
2019-04-11T15:47:50.129Z,35
2019-04-11T15:47:55.146Z,35
2019-04-11T15:48:00.115Z,35
2019-04-11T15:48:05.108Z,35
2019-04-11T15:48:10.236Z,35
2019-04-11T15:48:12.751Z,35
2019-04-11T15:48:23.381Z,35
2019-04-11T15:48:23.690Z,35
2019-04-11T15:48:27.751Z,35
2019-04-11T15:48:32.750Z,35
2019-04-11T15:48:37.740Z,36
2019-04-11T15:48:42.771Z,36
2019-04-11T15:48:47.779Z,36
2019-04-11T15:48:53.823Z,36
2019-04-11T15:48:57.822Z,36
2019-04-11T15:49:02.861Z,36
2019-04-11T15:49:19.551Z,36
2019-04-11T15:49:20.306Z,36
2019-04-11T15:49:21.030Z,36
2019-04-11T15:49:29.963Z,36
2019-04-11T15:49:31.030Z,36
2019-04-11T15:49:33.003Z,36
2019-04-11T15:49:35.779Z,36
2019-04-11T15:49:53.317Z,36
2019-04-11T15:50:53.346Z,36
2019-04-11T15:51:53.393Z,36
2019-04-11T15:52:53.529Z,36
2019-04-11T15:53:53.508Z,35
2019-04-11T15:54:54.556Z,36
2019-04-11T15:55:53.582Z,36
2019-04-11T15:56:07.782Z,36
2019-04-11T15:56:12.806Z,36
2019-04-11T15:56:56.863Z,36
2019-04-11T15:57:36.546Z,36
2019-04-11T15:57:56.917Z,36
2019-04-11T15:58:23.100Z,36
2019-04-11T15:59:23.160Z,36
2019-04-11T16:00:23.167Z,36
2019-04-11T16:01:23.206Z,36
2019-04-11T16:02:23.199Z,36
2019-04-11T16:03:24.581Z,36
2019-04-11T16:04:23.372Z,35
2019-04-11T16:05:23.441Z,37
2019-04-11T16:06:23.399Z,36
2019-04-11T16:07:23.447Z,35
2019-04-11T16:08:23.375Z,36
2019-04-11T16:09:23.437Z,36
2019-04-11T16:10:23.426Z,37
2019-04-11T16:11:23.457Z,36
2019-04-11T16:12:23.537Z,36
2019-04-11T16:13:23.525Z,36
2019-04-11T16:14:23.567Z,35
2019-04-11T16:15:23.595Z,36
2019-04-11T16:16:23.636Z,37
2019-04-11T16:17:23.679Z,37
2019-04-11T16:18:23.698Z,36
2019-04-11T16:19:23.724Z,35
2019-04-11T16:20:23.682Z,37
2019-04-11T16:21:24.235Z,37
2019-04-11T16:22:24.845Z,37
2019-04-11T16:23:25.683Z,37
2019-04-11T16:24:27.306Z,36
2019-04-11T16:25:23.778Z,37
2019-04-11T16:26:23.797Z,36
2019-04-11T16:27:23.781Z,37
2019-04-11T16:28:23.842Z,36
2019-04-11T16:29:23.818Z,37
2019-04-11T16:30:23.820Z,37
2019-04-11T16:31:23.838Z,37
2019-04-11T16:32:23.868Z,37
2019-04-11T16:33:24.887Z,36
2019-04-11T16:34:23.863Z,36
2019-04-11T16:35:26.027Z,36
2019-04-11T16:36:26.901Z,35
2019-04-11T16:37:23.907Z,37
2019-04-11T16:38:23.932Z,36
2019-04-11T16:39:24.007Z,36
2019-04-11T16:40:23.922Z,37
2019-04-11T16:41:24.495Z,38
2019-04-11T16:42:24.060Z,37
2019-04-11T16:43:24.392Z,37
2019-04-11T16:44:25.018Z,36
2019-04-11T16:45:24.971Z,36
2019-04-11T16:46:24.783Z,37
2019-04-11T16:47:25.954Z,37
2019-04-11T16:48:25.653Z,37
2019-04-11T16:49:25.935Z,36
2019-04-11T16:50:23.964Z,36
2019-04-11T16:51:30.542Z,36
2019-04-11T16:52:23.974Z,37
2019-04-11T16:53:23.975Z,37
2019-04-11T16:54:24.010Z,36
2019-04-11T16:55:24.099Z,38
2019-04-11T16:56:24.675Z,37
2019-04-11T16:57:25.723Z,38
2019-04-11T16:58:24.244Z,37
2019-04-11T16:59:24.687Z,37
2019-04-11T17:00:27.120Z,37
2019-04-11T17:01:24.656Z,37
2019-04-11T17:02:24.934Z,36
2019-04-11T17:03:25.034Z,37
2019-04-11T17:04:25.957Z,38
2019-04-11T17:05:26.718Z,37
2019-04-11T17:06:25.894Z,38
2019-04-11T17:07:26.053Z,37
2019-04-11T17:08:25.881Z,37
2019-04-11T17:09:26.659Z,37
2019-04-11T17:10:26.783Z,37
2019-04-11T17:11:26.922Z,37
2019-04-11T17:12:26.638Z,36
2019-04-11T17:13:25.970Z,37
2019-04-11T17:14:28.007Z,37
2019-04-11T17:15:24.991Z,37
2019-04-11T17:16:25.024Z,37
2019-04-11T17:17:26.318Z,37
2019-04-11T17:18:25.098Z,37
2019-04-11T17:19:25.164Z,37
2019-04-11T17:20:25.160Z,37
2019-04-11T17:21:25.202Z,38
2019-04-11T17:22:25.268Z,38
2019-04-11T17:23:25.321Z,38
2019-04-11T17:24:25.377Z,39
2019-04-11T17:25:25.415Z,38
2019-04-11T17:26:25.485Z,37
2019-04-11T17:27:25.532Z,38
2019-04-11T17:28:25.601Z,37
2019-04-11T17:29:25.616Z,37
2019-04-11T17:30:25.571Z,37
2019-04-11T17:31:26.544Z,37
2019-04-11T17:32:26.432Z,37
2019-04-11T17:33:28.507Z,36
2019-04-11T17:34:25.783Z,37
2019-04-11T17:35:25.834Z,36
2019-04-11T17:36:25.860Z,37
2019-04-11T17:37:25.934Z,37
2019-04-11T17:38:25.959Z,37
2019-04-11T17:39:28.301Z,37
2019-04-11T17:40:25.979Z,38
2019-04-11T17:41:26.025Z,38
2019-04-11T17:42:26.030Z,38
2019-04-11T17:43:26.174Z,39
2019-04-11T17:44:26.085Z,39
2019-04-11T17:45:26.147Z,39
2019-04-11T17:46:26.909Z,37
2019-04-11T17:47:27.554Z,37
2019-04-11T17:48:26.221Z,38
2019-04-11T17:49:26.259Z,38
2019-04-11T17:50:26.336Z,39
2019-04-11T17:51:26.346Z,39
2019-04-11T17:52:26.384Z,39
2019-04-11T17:53:26.426Z,38
2019-04-11T17:54:26.453Z,39
2019-04-11T17:55:26.501Z,39
2019-04-11T17:56:26.532Z,38
2019-04-11T17:57:27.074Z,38
2019-04-11T17:58:27.197Z,38
2019-04-11T17:59:28.765Z,39
2019-04-11T18:00:29.491Z,39
2019-04-11T18:01:26.684Z,39
2019-04-11T18:02:26.676Z,39
2019-04-11T18:03:26.710Z,39
2019-04-11T18:04:26.777Z,39
2019-04-11T18:05:26.764Z,39
2019-04-11T18:06:26.805Z,38
2019-04-11T18:07:59.070Z,38
2019-04-11T18:08:26.931Z,38
2019-04-11T18:09:26.920Z,38
2019-04-11T18:10:26.891Z,37
2019-04-11T18:11:26.916Z,38
2019-04-11T18:12:26.939Z,38
2019-04-11T18:13:30.419Z,38
2019-04-11T18:14:30.606Z,38
2019-04-11T18:15:28.735Z,38
2019-04-11T18:16:28.794Z,39
2019-04-11T18:17:27.031Z,39
2019-04-11T18:18:27.074Z,38
2019-04-11T18:19:27.078Z,39
2019-04-11T18:20:27.343Z,40
2019-04-11T18:21:27.090Z,39
2019-04-11T18:22:27.129Z,39
2019-04-11T18:23:27.158Z,40
2019-04-11T18:24:27.149Z,39
2019-04-11T18:25:27.156Z,38
2019-04-11T18:26:27.165Z,39
2019-04-11T18:27:27.207Z,38
2019-04-11T18:28:27.208Z,39
2019-04-11T18:29:29.446Z,38
2019-04-11T18:30:27.198Z,39
2019-04-11T18:31:27.247Z,39
2019-04-11T18:32:27.242Z,39
2019-04-11T18:33:31.383Z,38
2019-04-11T18:34:27.219Z,38
2019-04-11T18:35:27.229Z,39
2019-04-11T18:36:27.258Z,38
2019-04-11T18:37:27.257Z,38
2019-04-11T18:38:27.223Z,38
2019-04-11T18:39:27.273Z,38
2019-04-11T18:40:27.266Z,39
2019-04-11T18:41:29.792Z,39
2019-04-11T18:42:27.399Z,39
2019-04-11T18:43:27.404Z,39
2019-04-11T18:44:27.443Z,39
2019-04-11T18:45:27.553Z,39
2019-04-11T18:46:27.528Z,39
2019-04-11T18:47:27.591Z,39
2019-04-11T18:48:27.627Z,39
2019-04-11T18:49:27.685Z,39
2019-04-11T18:50:28.852Z,40
2019-04-11T18:51:30.204Z,39
2019-04-11T18:52:29.056Z,39
2019-04-11T18:53:27.854Z,39
2019-04-11T18:54:27.898Z,39
2019-04-11T18:55:27.959Z,39
2019-04-11T18:56:28.010Z,38
2019-04-11T18:57:28.066Z,39
2019-04-11T18:58:28.110Z,39
2019-04-11T18:59:28.187Z,39
2019-04-11T19:00:28.176Z,38
2019-04-11T19:01:28.221Z,38
2019-04-11T19:02:28.268Z,38
2019-04-11T19:03:35.880Z,39
2019-04-11T19:04:32.491Z,40
2019-04-11T19:05:29.201Z,39
2019-04-11T19:06:28.447Z,39
2019-04-11T19:07:28.485Z,39
2019-04-11T19:08:28.537Z,39
2019-04-11T19:09:28.528Z,39
2019-04-11T19:10:28.590Z,40
2019-04-11T19:11:28.605Z,40
2019-04-11T19:12:28.642Z,41
2019-04-11T19:13:28.716Z,40
2019-04-11T19:14:28.749Z,39
2019-04-11T19:15:28.762Z,40
2019-04-11T19:16:28.810Z,39
2019-04-11T19:17:31.355Z,40
2019-04-11T19:18:28.880Z,40
2019-04-11T19:19:28.923Z,40
2019-04-11T19:20:31.234Z,39
2019-04-11T19:21:29.017Z,40
2019-04-11T19:22:37.360Z,40
2019-04-11T19:23:29.121Z,39
2019-04-11T19:24:35.233Z,39
2019-04-11T19:25:31.529Z,39
2019-04-11T19:26:29.213Z,39
2019-04-11T19:27:29.264Z,39
2019-04-11T19:28:29.325Z,39
2019-04-11T19:29:29.343Z,39
2019-04-11T19:30:29.361Z,40
2019-04-11T19:31:29.384Z,40
2019-04-11T19:32:29.427Z,39
2019-04-11T19:33:29.623Z,39
2019-04-11T19:34:29.519Z,40
2019-04-11T19:35:29.583Z,40
2019-04-11T19:36:29.609Z,39
2019-04-11T19:37:29.639Z,40
2019-04-11T19:38:29.622Z,40
2019-04-11T19:39:29.681Z,40
2019-04-11T19:40:30.477Z,41
2019-04-11T19:41:29.727Z,40
2019-04-11T19:42:29.755Z,40
2019-04-11T19:43:29.778Z,40
2019-04-11T19:44:29.836Z,40
2019-04-11T19:45:29.871Z,39
2019-04-11T19:46:29.895Z,39
2019-04-11T19:47:29.950Z,39
2019-04-11T19:48:29.928Z,39
2019-04-11T19:49:29.985Z,40
2019-04-11T19:50:29.997Z,40
2019-04-11T19:51:30.048Z,39
2019-04-11T19:52:32.579Z,40
2019-04-11T19:53:32.701Z,40
2019-04-11T19:54:32.688Z,39
2019-04-11T19:55:30.145Z,39
2019-04-11T19:56:30.165Z,39
2019-04-11T19:57:30.202Z,39
2019-04-11T19:58:30.219Z,39
2019-04-11T19:59:30.462Z,38
2019-04-11T20:00:30.216Z,38
2019-04-11T20:01:30.231Z,39
2019-04-11T20:02:30.248Z,39
2019-04-11T20:03:31.725Z,40
2019-04-11T20:04:30.302Z,40
2019-04-11T20:05:30.524Z,39
2019-04-11T20:06:30.362Z,39
2019-04-11T20:07:30.319Z,39
2019-04-11T20:08:31.334Z,39
2019-04-11T20:09:31.439Z,40
2019-04-11T20:10:31.261Z,40
2019-04-11T20:11:30.365Z,39
2019-04-11T20:12:30.740Z,39
2019-04-11T20:13:32.193Z,38
2019-04-11T20:14:33.831Z,39
2019-04-11T20:15:36.846Z,40
2019-04-11T20:16:40.997Z,40
2019-04-11T20:17:30.414Z,40
2019-04-11T20:18:30.410Z,40
2019-04-11T20:19:30.569Z,41
2019-04-11T20:20:30.417Z,40
2019-04-11T20:21:30.473Z,41
2019-04-11T20:22:30.416Z,40
2019-04-11T20:23:30.448Z,40
2019-04-11T20:24:31.530Z,40
2019-04-11T20:25:31.597Z,40
2019-04-11T20:26:30.616Z,41
2019-04-11T20:27:30.648Z,41
2019-04-11T20:28:30.985Z,41
2019-04-11T20:29:30.745Z,41
2019-04-11T20:30:30.796Z,41
2019-04-11T20:31:30.840Z,41
2019-04-11T20:32:33.047Z,41
2019-04-11T20:33:34.052Z,41
2019-04-11T20:34:33.512Z,40
2019-04-11T20:35:31.300Z,41
2019-04-11T20:36:33.428Z,42
2019-04-11T20:37:38.949Z,42
2019-04-11T20:38:31.254Z,41
2019-04-11T20:39:31.291Z,40
2019-04-11T20:40:31.351Z,39
2019-04-11T20:41:31.367Z,41
2019-04-11T20:42:31.400Z,40
2019-04-11T20:43:31.432Z,40
2019-04-11T20:44:31.499Z,41
2019-04-11T20:45:31.543Z,40
2019-04-11T20:46:31.600Z,39
2019-04-11T20:47:31.616Z,39
2019-04-11T20:48:33.725Z,39
2019-04-11T20:49:31.669Z,39
2019-04-11T20:50:31.728Z,40
2019-04-11T20:51:31.779Z,40
2019-04-11T20:52:31.757Z,40
2019-04-11T20:53:31.845Z,39
2019-04-11T20:54:31.876Z,39
2019-04-11T20:55:31.932Z,40
2019-04-11T20:56:31.979Z,41
2019-04-11T20:57:32.024Z,41
2019-04-11T20:58:32.081Z,40
2019-04-11T20:59:34.652Z,41
2019-04-11T21:00:32.140Z,40
2019-04-11T21:01:32.173Z,40
2019-04-11T21:02:32.185Z,41
2019-04-11T21:03:32.244Z,40
2019-04-11T21:04:32.264Z,41
2019-04-11T21:05:32.372Z,40
2019-04-11T21:06:32.638Z,40
2019-04-11T21:07:32.573Z,40
2019-04-11T21:08:33.036Z,40
2019-04-11T21:09:33.205Z,40
2019-04-11T21:10:35.193Z,41
2019-04-11T21:11:36.141Z,41
2019-04-11T21:12:32.646Z,40
2019-04-11T21:13:32.695Z,40
2019-04-11T21:14:32.736Z,40
2019-04-11T21:15:32.779Z,39
2019-04-11T21:16:32.823Z,41
2019-04-11T21:17:32.850Z,42
2019-04-11T21:18:32.904Z,42
2019-04-11T21:19:32.921Z,41
2019-04-11T21:20:32.972Z,41
2019-04-11T21:21:33.026Z,40
2019-04-11T21:22:33.036Z,40
2019-04-11T21:23:33.096Z,40
2019-04-11T21:24:33.094Z,41
2019-04-11T21:25:33.173Z,41
2019-04-11T21:26:33.171Z,40
2019-04-11T21:27:33.323Z,42
2019-04-11T21:28:33.252Z,42
2019-04-11T21:29:33.265Z,41
2019-04-11T21:30:33.315Z,41
2019-04-11T21:31:33.345Z,42
2019-04-11T21:32:35.825Z,41
2019-04-11T21:33:34.885Z,42
2019-04-11T21:34:33.412Z,42
2019-04-11T21:35:34.007Z,41
2019-04-11T21:36:33.467Z,40
2019-04-11T21:37:33.516Z,41
2019-04-11T21:38:33.519Z,41
2019-04-11T21:39:33.542Z,42
2019-04-11T21:40:35.768Z,43
2019-04-11T21:41:35.951Z,43
2019-04-11T21:42:35.802Z,42
2019-04-11T21:43:35.757Z,42
2019-04-11T21:44:35.817Z,42
2019-04-11T21:45:35.420Z,41
2019-04-11T21:46:36.978Z,41
2019-04-11T21:47:36.855Z,42
2019-04-11T21:48:35.511Z,42
2019-04-11T21:49:36.575Z,39
2019-04-11T21:50:33.671Z,39
2019-04-11T21:51:33.676Z,40
2019-04-11T21:52:33.708Z,40
2019-04-11T21:53:36.607Z,41
2019-04-11T21:54:33.692Z,41
2019-04-11T21:55:33.703Z,41
2019-04-11T21:56:33.712Z,41
2019-04-11T21:57:33.733Z,41
2019-04-11T21:58:33.827Z,41
2019-04-11T21:59:33.742Z,41
2019-04-11T22:00:33.762Z,42
2019-04-11T22:01:33.755Z,42
2019-04-11T22:02:33.781Z,41
2019-04-11T22:03:33.747Z,41
2019-04-11T22:04:33.757Z,40
2019-04-11T22:05:33.759Z,41
2019-04-11T22:06:33.847Z,41
2019-04-11T22:07:33.882Z,40
2019-04-11T22:08:34.349Z,40
2019-04-11T22:09:35.487Z,39
2019-04-11T22:10:34.050Z,40
2019-04-11T22:11:34.098Z,40
2019-04-11T22:12:34.146Z,40
2019-04-11T22:13:34.248Z,41
2019-04-11T22:14:34.328Z,41
2019-04-11T22:15:34.278Z,41
2019-04-11T22:16:34.395Z,41
2019-04-11T22:17:34.352Z,41
2019-04-11T22:18:34.370Z,40
2019-04-11T22:19:34.445Z,40
2019-04-11T22:20:34.432Z,41
2019-04-11T22:21:34.445Z,41
2019-04-11T22:22:34.455Z,41
2019-04-11T22:23:34.487Z,41
2019-04-11T22:24:34.535Z,41
2019-04-11T22:25:34.560Z,42
2019-04-11T22:26:34.595Z,41
2019-04-11T22:27:34.652Z,41
2019-04-11T22:28:34.656Z,42
2019-04-11T22:29:34.724Z,43
2019-04-11T22:30:34.763Z,42
2019-04-11T22:31:34.824Z,42
2019-04-11T22:32:34.867Z,42
2019-04-11T22:33:34.922Z,42
2019-04-11T22:34:35.003Z,42
2019-04-11T22:35:35.019Z,42
2019-04-11T22:36:35.039Z,42
2019-04-11T22:37:35.079Z,42
2019-04-11T22:38:35.167Z,42
2019-04-11T22:39:35.187Z,42
2019-04-11T22:40:35.222Z,42
2019-04-11T22:41:35.450Z,42
2019-04-11T22:42:35.276Z,41
2019-04-11T22:43:37.830Z,42
2019-04-11T22:44:35.510Z,43
2019-04-11T22:45:37.604Z,42
2019-04-11T22:46:37.303Z,44
2019-04-11T22:47:35.858Z,45
2019-04-11T22:48:36.766Z,45
2019-04-11T22:49:36.734Z,44
2019-04-11T22:50:40.244Z,44
2019-04-11T22:51:35.596Z,44
2019-04-11T22:52:35.664Z,43
2019-04-11T22:53:35.688Z,44
2019-04-11T22:54:35.968Z,43
2019-04-11T22:55:35.814Z,44
2019-04-11T22:56:35.822Z,44
2019-04-11T22:57:35.823Z,44
2019-04-11T22:58:35.884Z,44
2019-04-11T22:59:35.909Z,43
2019-04-11T23:00:35.989Z,43
2019-04-11T23:01:35.976Z,44
2019-04-11T23:02:36.065Z,44
2019-04-11T23:03:36.061Z,43
2019-04-11T23:04:36.124Z,44
2019-04-11T23:05:36.169Z,44
2019-04-11T23:06:36.190Z,44
2019-04-11T23:07:36.199Z,43
2019-04-11T23:08:36.234Z,43
2019-04-11T23:09:36.272Z,45
2019-04-11T23:10:36.322Z,45
2019-04-11T23:11:36.326Z,45
2019-04-11T23:12:36.362Z,45
2019-04-11T23:13:36.418Z,45
2019-04-11T23:14:36.427Z,44
2019-04-11T23:15:36.446Z,44
2019-04-11T23:16:36.492Z,45
2019-04-11T23:17:37.978Z,46
2019-04-11T23:18:36.563Z,45
2019-04-11T23:19:36.571Z,45
2019-04-11T23:20:36.572Z,45
2019-04-11T23:21:36.668Z,44
2019-04-11T23:22:36.653Z,45
2019-04-11T23:23:36.651Z,45
2019-04-11T23:24:39.153Z,45
2019-04-11T23:25:36.715Z,45
2019-04-11T23:26:36.712Z,46
2019-04-11T23:27:36.707Z,46
2019-04-11T23:28:39.227Z,46
2019-04-11T23:29:39.001Z,47
2019-04-11T23:30:36.824Z,47
2019-04-11T23:31:36.795Z,46
2019-04-11T23:32:36.799Z,47
2019-04-11T23:33:36.801Z,46
2019-04-11T23:34:36.819Z,47
2019-04-11T23:35:36.818Z,48
2019-04-11T23:36:36.814Z,47
2019-04-11T23:37:36.825Z,47
2019-04-11T23:38:36.855Z,46
2019-04-11T23:39:36.857Z,44
2019-04-11T23:40:36.876Z,45
2019-04-11T23:41:36.857Z,46
2019-04-11T23:42:36.854Z,45
2019-04-11T23:43:36.886Z,44
2019-04-11T23:44:36.870Z,44
2019-04-11T23:45:36.872Z,44
2019-04-11T23:46:36.860Z,44
2019-04-11T23:47:36.967Z,44
2019-04-11T23:48:37.007Z,44
2019-04-11T23:49:37.081Z,44
2019-04-11T23:50:37.130Z,44
2019-04-11T23:51:37.192Z,45
2019-04-11T23:52:37.254Z,44
2019-04-11T23:53:37.299Z,43
2019-04-11T23:54:37.361Z,44
2019-04-11T23:55:37.415Z,44
2019-04-11T23:56:37.479Z,45
2019-04-11T23:57:37.514Z,44
2019-04-11T23:58:37.615Z,45
2019-04-11T23:59:37.647Z,45
